Time;durP1;ratioP1;P1;durP2;ratioP2;P2;SDS_P1;SDS_P2;PMS_P1;PMS_P2;Temp;Humidity;BMP_temperature;BMP_pressure;BME280_temperature;BME280_humidity;BME280_pressure;Samples;Min_cycle;Max_cycle;Signal;HPM_P1;HPM_P2
2020/12/12 00:02:30;;;;;;;28.70;19.82;;;;;;;-1.36;79.58;100643.87;1818014;78;22340;-51
2020/12/12 00:04:56;;;;;;;31.45;20.02;;;;;;;-1.35;79.68;100640.69;1818173;78;21017;-53
2020/12/12 00:07:24;;;;;;;34.25;22.17;;;;;;;-1.34;79.60;100637.80;1818051;78;21097;-51
2020/12/12 00:09:52;;;;;;;36.30;21.57;;;;;;;-1.32;79.69;100642.48;1818117;78;20965;-52
2020/12/12 00:12:20;;;;;;;32.88;22.25;;;;;;;-1.29;79.55;100637.22;1818308;78;21042;-52
2020/12/12 00:14:47;;;;;;;33.23;19.73;;;;;;;-1.30;79.64;100631.50;1818675;78;21065;-52
2020/12/12 00:17:15;;;;;;;38.53;25.02;;;;;;;-1.28;79.54;100638.91;1818767;78;20973;-51
2020/12/12 00:19:42;;;;;;;34.98;19.82;;;;;;;-1.28;79.59;100640.25;1818678;78;21292;-51
2020/12/12 00:22:10;;;;;;;33.53;20.85;;;;;;;-1.25;79.49;100635.30;1818686;78;21017;-52
2020/12/12 00:24:37;;;;;;;33.05;22.37;;;;;;;-1.27;79.45;100632.47;1818235;78;20990;-51
2020/12/12 00:27:04;;;;;;;35.78;20.95;;;;;;;-1.28;79.53;100632.98;1818118;78;20970;-51
2020/12/12 00:29:32;;;;;;;26.30;18.12;;;;;;;-1.28;79.49;100625.42;1818287;78;20946;-52
2020/12/12 00:32:00;;;;;;;27.60;18.90;;;;;;;-1.23;79.60;100629.72;1818229;78;21135;-52
2020/12/12 00:34:28;;;;;;;40.10;23.02;;;;;;;-1.21;79.51;100623.64;1818165;78;21001;-51
2020/12/12 00:36:56;;;;;;;28.70;19.82;;;;;;;-1.22;79.40;100617.39;1818275;78;20965;-51
2020/12/12 00:39:23;;;;;;;34.80;22.22;;;;;;;-1.20;79.45;100615.88;1818028;78;20930;-52
2020/12/12 00:41:50;;;;;;;38.17;21.50;;;;;;;-1.20;79.43;100611.84;1818136;77;21583;-51
2020/12/12 00:44:18;;;;;;;31.12;21.07;;;;;;;-1.16;79.48;100614.45;1818170;78;21412;-52
2020/12/12 00:46:45;;;;;;;33.40;22.35;;;;;;;-1.12;79.39;100613.56;1818172;78;20987;-51
2020/12/12 00:49:15;;;;;;;31.55;20.20;;;;;;;-1.10;79.51;100609.66;1818182;78;20973;-51
2020/12/12 00:51:42;;;;;;;37.33;21.95;;;;;;;-1.07;79.28;100609.27;1818252;78;20998;-51
2020/12/12 00:54:09;;;;;;;30.75;21.35;;;;;;;-1.06;79.32;100608.74;1818256;78;21468;-52
2020/12/12 00:56:37;;;;;;;35.40;20.23;;;;;;;-1.09;79.22;100611.30;1818015;78;21201;-52
2020/12/12 00:59:04;;;;;;;31.48;21.00;;;;;;;-1.07;79.32;100611.14;1818083;78;20977;-51
2020/12/12 01:01:32;;;;;;;28.17;19.70;;;;;;;-1.07;79.35;100603.88;1818230;78;21057;-51
2020/12/12 01:04:00;;;;;;;33.50;20.62;;;;;;;-1.10;79.22;100602.91;1818055;78;21013;-51
2020/12/12 01:06:27;;;;;;;36.00;23.02;;;;;;;-1.09;79.36;100607.78;1818208;78;21501;-51
2020/12/12 01:08:54;;;;;;;36.93;22.05;;;;;;;-1.10;79.29;100605.61;1818120;78;23608;-52
2020/12/12 01:11:22;;;;;;;31.95;20.20;;;;;;;-1.11;79.27;100613.37;1818045;78;20973;-51
2020/12/12 01:13:50;;;;;;;29.35;19.37;;;;;;;-1.12;79.29;100606.30;1817532;78;21013;-51
2020/12/12 01:16:19;;;;;;;33.78;22.65;;;;;;;-1.12;79.39;100602.78;1817545;79;20934;-52
2020/12/12 01:18:46;;;;;;;33.45;21.30;;;;;;;-1.12;79.48;100602.78;1817562;79;21120;-52
2020/12/12 01:21:16;;;;;;;29.67;19.75;;;;;;;-1.09;79.48;100607.27;1817405;79;21341;-52
2020/12/12 01:23:45;;;;;;;37.25;21.82;;;;;;;-1.11;79.53;100595.03;1817425;79;21108;-52
2020/12/12 01:26:13;;;;;;;30.85;22.05;;;;;;;-1.13;79.64;100604.66;1817382;79;21001;-52
2020/12/12 01:28:40;;;;;;;37.35;21.73;;;;;;;-1.13;79.82;100600.61;1817532;79;21017;-51
2020/12/12 01:31:13;;;;;;;30.62;20.20;;;;;;;-1.06;79.92;100604.70;1817421;79;21021;-51
2020/12/12 01:33:40;;;;;;;35.98;20.72;;;;;;;-1.02;79.76;100599.77;1816985;78;21576;-52
2020/12/12 01:36:07;;;;;;;31.30;20.08;;;;;;;-1.01;79.58;100593.36;1817424;79;21001;-52
2020/12/12 01:38:35;;;;;;;32.90;20.92;;;;;;;-1.04;79.56;100601.31;1817188;79;20958;-51
2020/12/12 01:41:07;;;;;;;29.05;18.87;;;;;;;-1.05;79.61;100601.81;1817491;77;21088;-52
2020/12/12 01:43:34;;;;;;;34.35;21.55;;;;;;;-1.03;79.73;100598.09;1817448;79;21464;-51
2020/12/12 01:46:01;;;;;;;33.70;22.05;;;;;;;-1.02;79.69;100601.12;1817542;78;21582;-51
2020/12/12 01:48:29;;;;;;;38.92;21.02;;;;;;;-1.03;79.53;100600.79;1817042;78;20986;-51
2020/12/12 01:50:57;;;;;;;34.88;21.68;;;;;;;-1.02;79.61;100602.47;1817386;79;21285;-52
2020/12/12 01:53:26;;;;;;;41.40;23.02;;;;;;;-1.07;79.51;100597.13;1817208;79;20997;-52
2020/12/12 01:55:53;;;;;;;35.75;21.77;;;;;;;-1.09;79.58;100590.27;1788836;79;20997;-52
2020/12/12 01:58:21;;;;;;;34.40;21.68;;;;;;;-1.09;79.67;100597.83;1817450;79;22896;-51
2020/12/12 02:00:48;;;;;;;28.85;19.45;;;;;;;-1.08;79.70;100600.02;1817474;79;21535;-51
2020/12/12 02:03:16;;;;;;;29.92;18.70;;;;;;;-1.07;79.68;100585.00;1817403;79;20989;-51
2020/12/12 02:05:45;;;;;;;34.92;21.37;;;;;;;-1.02;79.67;100595.73;1788109;79;21001;-51
2020/12/12 02:08:17;;;;;;;35.55;22.20;;;;;;;-1.04;79.46;100594.58;1817532;79;20985;-51
2020/12/12 02:10:48;;;;;;;36.85;21.57;;;;;;;-1.02;79.54;100597.08;1817437;79;21349;-51
2020/12/12 02:13:17;;;;;;;38.85;20.75;;;;;;;-1.00;79.41;100589.61;1817683;78;22127;-51
2020/12/12 02:15:45;;;;;;;47.58;25.20;;;;;;;-1.01;79.38;100596.06;1818156;78;20998;-51
2020/12/12 02:18:25;;;;;;;33.73;20.62;;;;;;;-1.05;79.15;100597.77;1818090;78;21520;-51
2020/12/12 02:20:58;;;;;;;41.58;21.23;;;;;;;-1.07;79.26;100593.61;1818142;78;20922;-51
2020/12/12 02:23:26;;;;;;;45.15;22.45;;;;;;;-1.07;79.36;100595.79;1818138;78;21369;-51
2020/12/12 02:25:55;;;;;;;46.10;22.05;;;;;;;-1.03;79.51;100587.31;1817902;78;21452;-51
2020/12/12 02:28:25;;;;;;;50.25;25.82;;;;;;;-0.99;79.56;100588.07;1817841;78;21017;-51
2020/12/12 02:30:51;;;;;;;46.20;23.20;;;;;;;-0.94;79.55;100588.86;1818162;78;21033;-51
2020/12/12 02:33:19;;;;;;;49.03;24.12;;;;;;;-0.96;79.17;100578.77;1817800;78;20997;-51
2020/12/12 02:35:48;;;;;;;33.63;20.05;;;;;;;-1.02;79.04;100587.64;1818143;78;21369;-51
2020/12/12 02:38:16;;;;;;;46.18;24.75;;;;;;;-1.02;79.23;100580.38;1817723;78;21363;-51
2020/12/12 02:40:53;;;;;;;50.33;23.12;;;;;;;-0.97;79.09;100573.90;1812414;79;28107;-51
2020/12/12 02:43:21;;;;;;;44.10;22.60;;;;;;;-1.03;79.16;100581.39;1756813;81;20974;-51
2020/12/12 02:45:49;;;;;;;37.93;21.40;;;;;;;-1.05;79.10;100581.59;1756693;81;21168;-51
2020/12/12 02:48:18;;;;;;;38.53;21.33;;;;;;;-1.07;79.12;100578.79;1756769;81;21045;-51
2020/12/12 02:50:45;;;;;;;41.40;22.85;;;;;;;-1.10;79.06;100580.50;1756955;81;21457;-51
2020/12/12 02:53:13;;;;;;;39.08;21.93;;;;;;;-1.13;79.05;100576.84;1756728;81;20997;-51
2020/12/12 02:55:41;;;;;;;38.83;23.10;;;;;;;-1.18;78.93;100576.08;1756401;81;21591;-51
2020/12/12 02:58:08;;;;;;;33.63;20.48;;;;;;;-1.25;78.92;100577.88;1756516;81;21285;-50
2020/12/12 03:00:37;;;;;;;31.95;19.85;;;;;;;-1.27;79.08;100579.42;1756631;81;21021;-50
2020/12/12 03:03:05;;;;;;;34.30;20.40;;;;;;;-1.29;79.13;100574.71;1756497;81;20990;-51
2020/12/12 03:05:32;;;;;;;37.30;22.13;;;;;;;-1.27;79.18;100570.48;1756881;81;22165;-50
2020/12/12 03:08:00;;;;;;;33.50;22.65;;;;;;;-1.26;79.29;100568.11;1756632;81;21041;-51
2020/12/12 03:10:28;;;;;;;37.00;21.17;;;;;;;-1.24;79.19;100572.81;1756780;81;21276;-51
2020/12/12 03:12:55;;;;;;;35.38;22.13;;;;;;;-1.27;78.92;100582.61;1756609;81;21029;-50
2020/12/12 03:15:24;;;;;;;37.85;22.90;;;;;;;-1.32;78.81;100576.45;1756603;81;21057;-51
2020/12/12 03:17:52;;;;;;;34.65;21.77;;;;;;;-1.33;79.02;100581.54;1756802;81;21017;-51
2020/12/12 03:20:19;;;;;;;37.60;22.90;;;;;;;-1.32;78.98;100587.23;1756611;81;21002;-51
2020/12/12 03:22:47;;;;;;;41.73;23.30;;;;;;;-1.31;79.16;100586.22;1756874;81;21127;-51
2020/12/12 03:25:15;;;;;;;36.40;21.82;;;;;;;-1.32;78.91;100581.02;1756653;81;21675;-51
2020/12/12 03:27:42;;;;;;;36.50;19.95;;;;;;;-1.33;78.97;100583.38;1756640;81;20998;-51
2020/12/12 03:30:10;;;;;;;34.43;20.75;;;;;;;-1.36;78.92;100583.24;1756786;81;21073;-51
2020/12/12 03:32:37;;;;;;;38.33;23.85;;;;;;;-1.40;78.88;100574.72;1756724;81;21045;-51
2020/12/12 03:35:05;;;;;;;40.55;21.05;;;;;;;-1.38;78.90;100584.48;1756776;81;22002;-51
2020/12/12 03:37:32;;;;;;;43.08;23.00;;;;;;;-1.37;78.89;100584.29;1756558;81;21085;-51
2020/12/12 03:40:00;;;;;;;47.75;25.65;;;;;;;-1.41;78.88;100577.09;1750072;81;21030;-51
2020/12/12 03:42:27;;;;;;;41.98;22.20;;;;;;;-1.44;78.95;100586.91;1743547;80;21736;-51
2020/12/12 03:44:54;;;;;;;50.55;26.02;;;;;;;-1.45;79.12;100591.96;1743672;82;21034;-51
2020/12/12 03:47:26;;;;;;;41.68;22.32;;;;;;;-1.45;78.90;100589.27;1743736;82;21366;-51
2020/12/12 03:49:53;;;;;;;49.63;24.07;;;;;;;-1.49;78.92;100574.50;1743640;82;21018;-51
2020/12/12 03:52:21;;;;;;;38.90;21.50;;;;;;;-1.51;78.72;100581.95;1742986;82;21029;-51
2020/12/12 03:54:49;;;;;;;37.83;22.62;;;;;;;-1.57;78.67;100577.34;1743102;82;21038;-50
2020/12/12 03:57:16;;;;;;;37.05;21.12;;;;;;;-1.59;78.83;100581.57;1742960;82;21081;-50
2020/12/12 03:59:43;;;;;;;45.80;21.42;;;;;;;-1.62;78.94;100585.97;1743161;82;21580;-50
2020/12/12 04:02:13;;;;;;;40.08;22.20;;;;;;;-1.66;78.98;100583.32;1742887;82;21089;-51
2020/12/12 04:04:40;;;;;;;38.10;20.40;;;;;;;-1.69;79.21;100585.57;1743013;82;21061;-51
2020/12/12 04:07:08;;;;;;;35.78;22.90;;;;;;;-1.65;79.38;100580.13;1742943;82;21070;-51
2020/12/12 04:09:35;;;;;;;37.98;21.50;;;;;;;-1.65;79.46;100581.48;1743042;82;21025;-51
2020/12/12 04:12:03;;;;;;;45.05;22.27;;;;;;;-1.66;79.38;100586.53;1743140;82;21216;-51
2020/12/12 04:14:31;;;;;;;50.20;24.95;;;;;;;-1.70;79.26;100581.20;1742822;82;21003;-50
2020/12/12 04:16:58;;;;;;;44.80;22.40;;;;;;;-1.72;79.41;100580.57;1743229;82;21006;-51
2020/12/12 04:19:26;;;;;;;40.58;22.22;;;;;;;-1.70;79.54;100582.06;1742924;82;21069;-51
2020/12/12 04:21:56;;;;;;;38.23;19.57;;;;;;;-1.70;79.50;100577.16;1742889;82;21073;-51
2020/12/12 04:24:23;;;;;;;44.40;23.55;;;;;;;-1.71;79.35;100570.95;1743034;82;20991;-51
2020/12/12 04:26:51;;;;;;;37.88;20.05;;;;;;;-1.72;79.40;100573.31;1742882;82;20991;-51
2020/12/12 04:29:18;;;;;;;43.35;23.52;;;;;;;-1.68;79.45;100571.91;1743074;82;20994;-52
2020/12/12 04:31:45;;;;;;;53.80;23.05;;;;;;;-1.65;79.56;100568.84;1743077;82;21077;-51
2020/12/12 04:34:13;;;;;;;48.80;22.77;;;;;;;-1.63;79.44;100569.99;1743194;82;21282;-51
2020/12/12 04:36:41;;;;;;;47.83;21.95;;;;;;;-1.64;79.24;100572.39;1743163;82;21370;-52
2020/12/12 04:39:09;;;;;;;39.92;19.35;;;;;;;-1.65;79.21;100574.22;1742878;82;21045;-51
2020/12/12 04:41:36;;;;;;;46.48;19.85;;;;;;;-1.66;78.94;100573.07;1743078;81;21073;-51
2020/12/12 04:44:03;;;;;;;46.37;21.85;;;;;;;-1.75;78.62;100573.17;1742950;82;21580;-51
2020/12/12 04:46:31;;;;;;;38.08;20.45;;;;;;;-1.81;78.63;100582.53;1743017;82;21018;-51
2020/12/12 04:48:59;;;;;;;38.73;20.88;;;;;;;-1.87;78.45;100576.05;1743035;82;21208;-51
2020/12/12 04:51:26;;;;;;;43.30;21.52;;;;;;;-1.91;78.69;100574.22;1742913;82;21738;-51
2020/12/12 04:53:57;;;;;;;37.70;21.20;;;;;;;-1.96;78.70;100569.08;1743313;82;21540;-51
2020/12/12 04:56:26;;;;;;;42.40;20.45;;;;;;;-1.99;78.54;100571.63;1742980;82;21030;-51
2020/12/12 04:58:54;;;;;;;36.00;18.52;;;;;;;-2.06;78.37;100575.27;1743036;82;20991;-51
2020/12/12 05:01:21;;;;;;;38.13;20.88;;;;;;;-2.11;78.22;100569.92;1743110;82;22398;-51
2020/12/12 05:03:49;;;;;;;36.30;20.43;;;;;;;-2.12;78.33;100573.63;1742698;82;21560;-51
2020/12/12 05:06:16;;;;;;;34.35;19.48;;;;;;;-2.10;78.33;100567.56;1721327;82;21026;-50
2020/12/12 05:08:44;;;;;;;28.05;18.60;;;;;;;-2.11;78.11;100567.23;1743064;82;21061;-51
2020/12/12 05:11:12;;;;;;;33.83;21.12;;;;;;;-2.13;78.07;100569.30;1743213;82;20990;-51
2020/12/12 05:13:39;;;;;;;34.30;19.60;;;;;;;-2.13;77.71;100571.12;1721626;82;21665;-51
2020/12/12 05:16:06;;;;;;;35.95;18.87;;;;;;;-2.17;77.72;100571.17;1743127;82;20982;-51
2020/12/12 05:18:34;;;;;;;27.95;17.45;;;;;;;-2.21;77.39;100568.55;1743168;82;21466;-52
2020/12/12 05:21:01;;;;;;;27.45;17.30;;;;;;;-2.23;77.19;100559.30;1743007;82;21062;-51
2020/12/12 05:23:29;;;;;;;23.45;15.45;;;;;;;-2.28;76.86;100566.59;1743118;82;21053;-51
2020/12/12 05:25:57;;;;;;;26.40;17.35;;;;;;;-2.33;76.62;100558.74;1742742;82;21649;-52
2020/12/12 05:28:25;;;;;;;25.85;16.67;;;;;;;-2.38;76.65;100556.61;1742987;82;21588;-52
2020/12/12 05:30:53;;;;;;;25.37;17.55;;;;;;;-2.43;76.54;100561.70;1742953;82;21008;-51
2020/12/12 05:33:24;;;;;;;24.43;15.98;;;;;;;-2.47;76.59;100557.22;1742782;82;20995;-52
2020/12/12 05:35:52;;;;;;;24.02;15.65;;;;;;;-2.46;76.77;100561.59;1743082;82;20990;-51
2020/12/12 05:38:20;;;;;;;22.90;15.25;;;;;;;-2.46;76.59;100562.94;1742912;82;21377;-51
2020/12/12 05:40:54;;;;;;;26.85;16.87;;;;;;;-2.45;76.53;100559.20;1742933;80;21065;-51
2020/12/12 05:43:33;;;;;;;25.27;17.70;;;;;;;-2.42;76.68;100557.18;1742936;82;21069;-52
2020/12/12 05:46:01;;;;;;;32.17;18.55;;;;;;;-2.39;76.78;100572.42;1743073;82;21062;-51
2020/12/12 05:48:28;;;;;;;33.85;19.60;;;;;;;-2.40;76.55;100570.78;1742990;82;21026;-52
2020/12/12 05:50:56;;;;;;;26.60;16.67;;;;;;;-2.40;76.42;100571.27;1743072;82;21710;-51
2020/12/12 05:53:23;;;;;;;25.05;16.57;;;;;;;-2.40;76.41;100563.20;1742897;82;20967;-51
2020/12/12 05:55:55;;;;;;;36.23;20.77;;;;;;;-2.44;76.22;100564.91;1743078;82;20999;-52
2020/12/12 05:58:23;;;;;;;32.45;20.72;;;;;;;-2.42;76.57;100567.42;1742849;82;21049;-51
2020/12/12 06:00:52;;;;;;;33.58;19.15;;;;;;;-2.38;76.50;100562.52;1743111;82;21062;-51
2020/12/12 06:03:31;;;;;;;27.62;17.92;;;;;;;-2.39;76.60;100567.05;1743024;82;21220;-51
2020/12/12 06:06:05;;;;;;;32.90;21.73;;;;;;;-2.40;76.63;100561.85;1743047;82;21014;-51
2020/12/12 06:08:38;;;;;;;35.25;23.60;;;;;;;-2.46;76.84;100556.20;1743140;82;21141;-52
2020/12/12 06:11:08;;;;;;;45.12;22.52;;;;;;;-2.45;77.20;100557.86;1743033;82;20990;-51
2020/12/12 06:13:37;;;;;;;38.83;21.57;;;;;;;-2.38;77.24;100562.00;1742821;82;20971;-51
2020/12/12 06:16:07;;;;;;;37.03;23.32;;;;;;;-2.35;77.00;100559.45;1742954;82;21205;-51
2020/12/12 06:18:47;;;;;;;35.25;21.15;;;;;;;-2.34;76.82;100559.79;1743058;82;20998;-51
2020/12/12 06:21:14;;;;;;;37.48;24.55;;;;;;;-2.33;76.80;100556.05;1742629;82;21014;-52
2020/12/12 06:23:41;;;;;;;36.85;23.92;;;;;;;-2.34;76.66;100554.41;1743053;82;21667;-52
2020/12/12 06:26:10;;;;;;;40.40;24.02;;;;;;;-2.38;76.23;100559.31;1742937;82;20994;-51
2020/12/12 06:28:42;;;;;;;32.90;21.30;;;;;;;-2.44;76.28;100558.19;1675102;82;21297;-52
2020/12/12 06:31:12;;;;;;;41.20;22.80;;;;;;;-2.42;76.22;100556.66;1724016;82;21010;-52
2020/12/12 06:33:52;;;;;;;35.90;22.25;;;;;;;-2.43;76.06;100561.70;1742876;82;21116;-52
2020/12/12 06:36:28;;;;;;;33.70;21.10;;;;;;;-2.46;75.94;100558.89;1742910;82;21481;-52
2020/12/12 06:39:24;;;;;;;39.48;23.90;;;;;;;-2.47;75.78;100561.25;1743128;82;21022;-52
2020/12/12 06:41:55;;;;;;;40.83;25.10;;;;;;;-2.50;75.90;100557.59;1749903;80;21166;-52
2020/12/12 06:44:35;;;;;;;37.93;24.85;;;;;;;-2.47;76.04;100555.05;1751080;82;21049;-52
2020/12/12 06:47:05;;;;;;;39.05;21.73;;;;;;;-2.46;75.98;100554.86;1751338;81;21042;-51
2020/12/12 06:49:35;;;;;;;52.65;28.05;;;;;;;-2.46;76.06;100554.86;1751096;82;21327;-51
2020/12/12 06:52:03;;;;;;;46.70;25.40;;;;;;;-2.46;76.18;100557.55;1751137;82;21572;-51
2020/12/12 06:54:32;;;;;;;38.25;22.62;;;;;;;-2.50;76.02;100546.84;1751219;81;21058;-51
2020/12/12 06:57:00;;;;;;;36.25;24.57;;;;;;;-2.53;75.92;100542.31;1751028;81;21049;-51
2020/12/12 06:59:35;;;;;;;37.25;23.00;;;;;;;-2.56;75.96;100543.52;1724123;82;21017;-50
2020/12/12 07:02:04;;;;;;;31.02;21.02;;;;;;;-2.56;76.14;100550.23;1751181;82;21042;-50
2020/12/12 07:04:34;;;;;;;31.80;21.02;;;;;;;-2.54;76.23;100545.53;1751251;81;21057;-51
2020/12/12 07:07:07;;;;;;;28.45;19.27;;;;;;;-2.52;76.02;100547.51;1751279;81;21299;-51
2020/12/12 07:09:39;;;;;;;33.30;22.22;;;;;;;-2.53;75.97;100534.25;1751097;81;20982;-51
2020/12/12 07:12:09;;;;;;;32.65;19.90;;;;;;;-2.50;76.13;100545.48;1751281;82;21085;-50
2020/12/12 07:14:38;;;;;;;32.28;22.82;;;;;;;-2.45;76.24;100548.44;1751001;82;21113;-52
2020/12/12 07:17:09;;;;;;;31.00;20.75;;;;;;;-2.44;76.17;100546.09;1751321;82;21576;-52
2020/12/12 07:19:40;;;;;;;37.85;22.17;;;;;;;-2.42;76.10;100537.00;1751141;81;21051;-52
2020/12/12 07:22:11;;;;;;;31.12;20.23;;;;;;;-2.41;76.15;100537.30;1751163;81;21017;-53
2020/12/12 07:24:38;;;;;;;35.95;20.35;;;;;;;-2.37;76.30;100537.27;1751221;82;21564;-52
2020/12/12 07:27:06;;;;;;;36.08;20.90;;;;;;;-2.35;76.14;100524.48;1751288;81;20994;-52
2020/12/12 07:29:33;;;;;;;35.35;21.45;;;;;;;-2.38;76.00;100531.06;1751413;81;21612;-52
2020/12/12 07:32:01;;;;;;;42.35;25.45;;;;;;;-2.37;76.21;100524.66;1751320;81;21360;-52
2020/12/12 07:34:29;;;;;;;35.08;22.32;;;;;;;-2.34;76.54;100531.53;1751456;81;21038;-51
2020/12/12 07:37:03;;;;;;;43.45;25.85;;;;;;;-2.30;76.55;100513.48;1751278;81;21033;-51
2020/12/12 07:39:35;;;;;;;54.83;29.55;;;;;;;-2.27;76.18;100513.10;1751187;81;21030;-51
2020/12/12 07:42:04;;;;;;;44.33;25.82;;;;;;;-2.28;76.10;100519.50;1751275;80;21038;-51
2020/12/12 07:44:33;;;;;;;43.80;25.65;;;;;;;-2.31;76.22;100520.39;1751107;81;21187;-51
2020/12/12 07:47:07;;;;;;;46.42;24.82;;;;;;;-2.31;76.35;100523.09;1751331;81;21611;-52
2020/12/12 07:49:37;;;;;;;50.15;27.05;;;;;;;-2.27;76.38;100532.46;1751344;81;21049;-51
2020/12/12 07:52:09;;;;;;;52.00;27.00;;;;;;;-2.22;76.58;100521.13;1751310;81;21592;-51
2020/12/12 07:54:47;;;;;;;36.90;22.17;;;;;;;-2.15;76.54;100518.84;1751282;81;21539;-51
2020/12/12 07:57:13;;;;;;;38.65;21.70;;;;;;;-2.17;76.24;100522.73;1751188;81;21273;-50
2020/12/12 07:59:42;;;;;;;44.20;22.42;;;;;;;-2.19;76.35;100524.27;1751155;81;20986;-50
2020/12/12 08:02:12;;;;;;;31.82;19.82;;;;;;;-2.19;76.38;100522.92;1751289;81;21595;-50
2020/12/12 08:04:40;;;;;;;38.20;23.90;;;;;;;-2.14;76.30;100515.66;1751211;81;22081;-51
2020/12/12 08:07:20;;;;;;;34.65;23.07;;;;;;;-2.19;75.98;100515.37;1751343;81;21615;-51
2020/12/12 08:09:51;;;;;;;39.30;24.75;;;;;;;-2.26;76.38;100510.75;1751355;81;21383;-52
2020/12/12 08:12:32;;;;;;;36.00;23.30;;;;;;;-2.26;76.84;100516.62;1751247;81;20970;-51
2020/12/12 08:18:13;;;;;;;37.83;22.42;;;;;;;-2.16;76.82;100509.61;1881450;75;20970;-51
2020/12/12 08:20:42;;;;;;;46.00;26.62;;;;;;;-2.18;76.74;100515.70;1838634;76;21025;-50
2020/12/12 08:23:15;;;;;;;49.27;27.90;;;;;;;-2.11;77.00;100516.62;1840665;76;21048;-51
2020/12/12 08:25:42;;;;;;;48.52;26.10;;;;;;;-2.02;77.07;100513.30;1847039;76;20986;-51
2020/12/12 08:28:09;;;;;;;44.80;26.68;;;;;;;-1.91;77.06;100518.20;1847278;76;21035;-51
2020/12/12 08:30:37;;;;;;;40.23;22.02;;;;;;;-1.85;76.86;100504.50;1849521;76;22096;-51
2020/12/12 08:33:11;;;;;;;37.80;24.55;;;;;;;-1.84;76.70;100504.31;1844664;76;21148;-51
2020/12/12 08:35:40;;;;;;;35.88;20.45;;;;;;;-1.84;76.69;100511.04;1769395;79;21183;-51
2020/12/12 08:38:13;;;;;;;38.45;22.25;;;;;;;-1.82;76.60;100505.47;1821819;78;21005;-51
2020/12/12 08:40:48;;;;;;;39.55;22.07;;;;;;;-1.83;76.35;100510.02;1789311;78;21064;-51
2020/12/12 08:43:17;;;;;;;41.30;22.55;;;;;;;-1.87;76.42;100511.91;1782938;80;21050;-51
2020/12/12 08:45:56;;;;;;;39.38;24.18;;;;;;;-1.88;76.51;100508.40;1778122;80;21053;-50
2020/12/12 08:48:37;;;;;;;38.92;24.40;;;;;;;-1.87;76.68;100507.39;1776923;80;22221;-51
2020/12/12 08:51:06;;;;;;;43.20;24.65;;;;;;;-1.87;76.60;100510.08;1780177;80;21208;-51
2020/12/12 08:53:40;;;;;;;33.10;21.65;;;;;;;-1.90;76.66;100506.42;1776384;80;21048;-51
2020/12/12 08:56:17;;;;;;;35.30;22.37;;;;;;;-1.86;76.75;100509.55;1769629;80;20994;-51
2020/12/12 08:58:59;;;;;;;47.15;27.20;;;;;;;-1.82;76.84;100503.59;1763746;80;21528;-52
2020/12/12 09:01:44;;;;;;;42.33;22.85;;;;;;;-1.75;76.77;100494.25;1776470;80;21478;-51
2020/12/12 09:04:20;;;;;;;32.15;22.77;;;;;;;-1.72;76.96;100492.52;1773297;80;21022;-52
2020/12/12 09:06:57;;;;;;;32.65;21.25;;;;;;;-1.69;76.78;100492.66;1777040;80;21013;-51
2020/12/12 09:09:31;;;;;;;44.23;22.98;;;;;;;-1.75;76.72;100493.73;1771169;80;21042;-51
2020/12/12 09:12:03;;;;;;;39.40;23.87;;;;;;;-1.79;76.73;100493.78;1779180;80;21041;-51
2020/12/12 09:14:33;;;;;;;46.70;26.15;;;;;;;-1.80;77.06;100488.59;1776285;80;21486;-51
2020/12/12 09:17:08;;;;;;;44.93;26.55;;;;;;;-1.77;77.14;100494.44;1776056;80;21636;-51
2020/12/12 09:19:38;;;;;;;35.65;22.32;;;;;;;-1.70;77.19;100489.63;1771746;80;20991;-51
2020/12/12 09:22:08;;;;;;;39.08;22.35;;;;;;;-1.67;77.21;100488.75;1780014;80;20970;-51
2020/12/12 09:24:35;;;;;;;39.50;22.77;;;;;;;-1.68;77.06;100476.30;1774491;80;21184;-51
2020/12/12 09:27:02;;;;;;;36.03;21.87;;;;;;;-1.69;76.91;100480.01;1782732;80;21206;-51
2020/12/12 09:29:30;;;;;;;43.73;26.12;;;;;;;-1.72;76.95;100482.27;1782005;80;21269;-51
2020/12/12 09:31:58;;;;;;;40.00;24.20;;;;;;;-1.75;77.12;100478.92;1768589;80;21058;-52
2020/12/12 09:34:26;;;;;;;36.73;23.65;;;;;;;-1.72;77.29;100473.66;1772140;80;20999;-51
2020/12/12 09:36:53;;;;;;;43.73;24.85;;;;;;;-1.66;77.27;100473.41;1779328;79;21030;-51
2020/12/12 09:39:20;;;;;;;49.10;28.15;;;;;;;-1.66;76.84;100462.64;1779184;79;21157;-51
2020/12/12 09:41:48;;;;;;;43.70;25.82;;;;;;;-1.64;77.15;100470.03;1788501;80;21025;-51
2020/12/12 09:44:16;;;;;;;41.30;26.23;;;;;;;-1.61;77.20;100467.77;1783843;80;21037;-51
2020/12/12 09:46:43;;;;;;;40.52;25.00;;;;;;;-1.57;77.21;100458.28;1788741;80;21745;-51
2020/12/12 09:49:11;;;;;;;38.50;25.02;;;;;;;-1.53;77.10;100458.72;1785767;79;20990;-51
2020/12/12 09:51:38;;;;;;;44.20;26.85;;;;;;;-1.54;77.22;100454.37;1784049;79;21379;-51
2020/12/12 09:54:06;;;;;;;40.10;26.17;;;;;;;-1.51;77.17;100453.16;1788810;79;21049;-52
2020/12/12 09:56:36;;;;;;;35.52;22.73;;;;;;;-1.47;77.28;100445.84;1788920;79;21013;-50
2020/12/12 09:59:04;;;;;;;38.13;22.48;;;;;;;-1.46;77.18;100439.93;1784414;79;21016;-51
2020/12/12 10:01:31;;;;;;;38.13;23.80;;;;;;;-1.45;77.27;100438.38;1788580;80;21294;-51
2020/12/12 10:04:00;;;;;;;39.13;24.15;;;;;;;-1.43;77.29;100430.95;1789843;79;21319;-51
2020/12/12 10:06:27;;;;;;;36.05;23.42;;;;;;;-1.44;77.27;100431.98;1778898;80;21046;-52
2020/12/12 10:08:55;;;;;;;41.02;23.25;;;;;;;-1.47;77.07;100435.56;1788567;80;21006;-51
2020/12/12 10:11:22;;;;;;;34.45;21.20;;;;;;;-1.56;77.01;100433.52;1788425;79;21069;-51
2020/12/12 10:13:50;;;;;;;28.42;20.05;;;;;;;-1.64;76.63;100435.02;1783927;79;21045;-51
2020/12/12 10:16:20;;;;;;;35.00;20.75;;;;;;;-1.75;76.36;100435.83;1788635;80;22836;-51
2020/12/12 10:18:47;;;;;;;28.87;20.48;;;;;;;-1.82;76.51;100436.28;1785680;79;21024;-51
2020/12/12 10:21:15;;;;;;;34.18;21.02;;;;;;;-1.84;76.49;100430.27;1783588;79;21041;-52
2020/12/12 10:23:42;;;;;;;37.85;21.65;;;;;;;-1.87;76.36;100419.87;1779146;79;21063;-51
2020/12/12 10:26:11;;;;;;;32.78;20.55;;;;;;;-1.90;76.49;100421.61;1787018;79;21053;-52
2020/12/12 10:28:39;;;;;;;35.98;22.20;;;;;;;-1.89;76.56;100419.74;1774127;80;22135;-51
2020/12/12 10:31:07;;;;;;;36.83;20.48;;;;;;;-1.88;76.58;100418.20;1779654;80;21045;-51
2020/12/12 10:33:35;;;;;;;37.80;20.35;;;;;;;-1.87;76.79;100419.87;1779188;80;21069;-51
2020/12/12 10:36:04;;;;;;;31.80;22.10;;;;;;;-1.86;76.55;100416.14;1776483;80;21099;-54
2020/12/12 10:38:34;;;;;;;38.85;21.95;;;;;;;-1.83;76.72;100424.35;1781582;80;21048;-51
2020/12/12 10:41:10;;;;;;;36.53;23.50;;;;;;;-1.81;76.51;100423.14;1780165;80;21628;-51
2020/12/12 10:43:30;;;;;;;33.20;19.87;;;;;;;-1.83;76.47;100414.93;1780927;80;21719;-52
2020/12/12 10:46:01;;;;;;;32.48;23.27;;;;;;;-1.82;76.49;100410.70;1782368;80;20974;-52
2020/12/12 10:48:28;;;;;;;33.92;21.60;;;;;;;-1.87;76.05;100410.45;1780556;80;21009;-52
2020/12/12 10:50:56;;;;;;;30.27;21.02;;;;;;;-1.89;76.42;100413.02;1776877;80;21623;-52
2020/12/12 10:53:23;;;;;;;37.58;22.82;;;;;;;-1.84;76.39;100409.22;1778901;80;21201;-52
2020/12/12 10:55:51;;;;;;;34.65;23.30;;;;;;;-1.87;76.35;100408.26;1767910;80;21607;-52
2020/12/12 10:58:18;;;;;;;36.03;21.62;;;;;;;-1.87;76.52;100402.38;1780573;80;21477;-52
2020/12/12 11:00:48;;;;;;;25.77;17.67;;;;;;;-1.83;76.45;100405.02;1782598;80;21010;-52
2020/12/12 11:03:14;;;;;;;37.40;23.12;;;;;;;-1.82;76.23;100406.66;1778894;80;20982;-52
2020/12/12 11:05:42;;;;;;;31.70;19.37;;;;;;;-1.81;76.32;100410.20;1779336;80;21202;-51
2020/12/12 11:08:10;;;;;;;33.60;20.40;;;;;;;-1.72;76.42;100410.91;1781136;80;21062;-51
2020/12/12 11:13:14;;;;;;;36.63;21.57;;;;;;;-1.69;75.53;100401.91;1888679;76;20897;-51
2020/12/12 11:15:42;;;;;;;46.73;22.75;;;;;;;-1.83;75.67;100406.36;1859697;77;20972;-52
2020/12/12 11:18:14;;;;;;;36.00;19.32;;;;;;;-1.89;75.86;100399.03;1859488;77;21935;-51
2020/12/12 11:20:41;;;;;;;41.25;21.05;;;;;;;-1.93;75.87;100403.13;1859712;77;20937;-52
2020/12/12 11:23:10;;;;;;;31.85;18.35;;;;;;;-1.98;75.89;100397.50;1859673;77;21034;-52
2020/12/12 11:25:38;;;;;;;35.90;20.12;;;;;;;-1.97;75.90;100400.49;1859582;77;21004;-52